Time;durP1;ratioP1;P1;durP2;ratioP2;P2;SDS_P1;SDS_P2;PMS_P1;PMS_P2;Temp;Humidity;BMP_temperature;BMP_pressure;BME280_temperature;BME280_humidity;BME280_pressure;Samples;Min_cycle;Max_cycle;Signal;HPM_P1;HPM_P2
2023/07/01 00:05:44;;;;;;;1.35;0.93;;;;;;;20.88;67.16;100367.56;21071578;28;20052;-65
2023/07/01 00:15:45;;;;;;;1.75;0.93;;;;;;;20.86;67.11;100346.94;21058725;28;20044;-65
2023/07/01 00:25:47;;;;;;;1.25;0.90;;;;;;;20.86;67.02;100327.19;21070623;28;20048;-65
2023/07/01 00:35:49;;;;;;;1.38;1.13;;;;;;;20.84;67.09;100296.75;21069663;28;20060;-65
2023/07/01 00:45:51;;;;;;;1.83;1.05;;;;;;;20.84;67.19;100280.53;21067124;28;20371;-65
2023/07/01 00:55:52;;;;;;;1.35;1.00;;;;;;;20.81;67.32;100270.88;21068836;28;20050;-65
2023/07/01 01:06:00;;;;;;;1.77;1.30;;;;;;;20.82;67.07;100260.91;21066409;28;20498;-65
2023/07/01 01:16:02;;;;;;;2.40;1.15;;;;;;;20.81;67.06;100240.28;21063373;28;20064;-65
2023/07/01 01:26:22;;;;;;;1.30;1.00;;;;;;;20.81;67.23;100221.34;21049049;28;20044;-65
2023/07/01 01:37:03;;;;;;;1.50;1.02;;;;;;;20.79;67.25;100207.16;21066446;28;20087;-65
2023/07/01 01:47:05;;;;;;;1.90;1.20;;;;;;;20.80;67.11;100187.19;21031675;28;20090;-65
2023/07/01 01:57:07;;;;;;;1.42;1.20;;;;;;;20.79;67.36;100182.81;20955617;28;20045;-65
2023/07/01 02:07:09;;;;;;;1.13;1.00;;;;;;;20.77;67.38;100182.06;20986121;28;20110;-65
2023/07/01 02:17:11;;;;;;;1.70;1.10;;;;;;;20.77;67.60;100155.03;21061217;28;20548;-65
2023/07/01 02:27:13;;;;;;;1.92;1.23;;;;;;;20.78;67.94;100145.94;20989866;28;20571;-65
2023/07/01 02:37:14;;;;;;;2.17;1.10;;;;;;;20.76;68.07;100137.13;20980656;28;20048;-65
2023/07/01 02:47:18;;;;;;;1.77;1.40;;;;;;;20.75;67.85;100111.94;20968791;28;20091;-65
2023/07/01 02:57:19;;;;;;;1.60;1.20;;;;;;;20.75;68.08;100113.78;20981539;28;20132;-65
2023/07/01 03:07:21;;;;;;;1.50;1.17;;;;;;;20.74;68.30;100096.72;20917544;28;20426;-65
2023/07/01 03:17:24;;;;;;;3.50;1.35;;;;;;;20.73;68.62;100092.34;21001658;28;20049;-65
2023/07/01 03:27:26;;;;;;;1.88;1.23;;;;;;;20.72;68.54;100086.06;20948636;28;20067;-65
2023/07/01 03:37:28;;;;;;;2.40;1.30;;;;;;;20.71;69.05;100073.56;20954444;28;20114;-65
2023/07/01 03:47:29;;;;;;;1.30;1.00;;;;;;;20.71;69.76;100064.63;20967030;28;20071;-65
2023/07/01 03:57:32;;;;;;;3.25;1.50;;;;;;;20.70;69.99;100063.75;20962682;28;20064;-65
2023/07/01 04:07:33;;;;;;;2.30;1.38;;;;;;;20.70;70.73;100038.59;20947011;28;20196;-65
2023/07/01 04:17:37;;;;;;;2.15;1.35;;;;;;;20.68;71.11;100046.03;20949865;28;20510;-65
2023/07/01 04:27:42;;;;;;;2.22;1.17;;;;;;;20.68;71.61;100019.00;20967001;28;20110;-65
2023/07/01 04:37:43;;;;;;;1.58;1.10;;;;;;;20.67;71.98;100010.03;20948070;28;20056;-65
2023/07/01 04:47:46;;;;;;;2.05;1.38;;;;;;;20.66;72.47;99997.53;20946273;28;20036;-65
2023/07/01 04:57:47;;;;;;;1.23;1.10;;;;;;;20.65;72.87;99990.44;20936451;28;20505;-65
2023/07/01 05:07:49;;;;;;;1.42;0.90;;;;;;;20.65;73.21;99979.63;20951495;28;20056;-65
2023/07/01 05:17:51;;;;;;;1.83;1.08;;;;;;;20.63;73.70;99981.66;20951731;28;20071;-65
2023/07/01 05:27:52;;;;;;;2.08;1.00;;;;;;;20.63;74.48;99970.84;20942675;28;20382;-65
2023/07/01 05:37:54;;;;;;;1.48;1.30;;;;;;;20.61;74.60;99962.06;20948857;28;20556;-65
2023/07/01 05:47:56;;;;;;;1.33;1.23;;;;;;;20.64;74.95;99952.78;20970559;28;20068;-65
2023/07/01 05:57:57;;;;;;;1.42;1.20;;;;;;;20.64;75.43;99950.88;20966234;28;20391;-65
2023/07/01 06:07:59;;;;;;;1.50;1.10;;;;;;;20.64;75.79;99950.88;20954210;28;20099;-63
2023/07/01 06:18:01;;;;;;;1.90;1.40;;;;;;;20.58;76.76;99940.78;20932362;28;20049;-64
2023/07/01 06:28:02;;;;;;;1.42;1.15;;;;;;;20.67;77.43;99947.84;20950329;28;20049;-64
2023/07/01 06:38:04;;;;;;;3.38;1.30;;;;;;;20.70;78.32;99950.19;20916105;28;20064;-64
2023/07/01 06:48:06;;;;;;;2.47;1.40;;;;;;;20.72;79.29;99945.44;20914537;28;20465;-64
2023/07/01 06:58:08;;;;;;;2.40;1.40;;;;;;;20.75;80.22;99940.69;20901137;28;20123;-64
2023/07/01 07:08:09;;;;;;;1.30;1.00;;;;;;;20.77;80.72;99930.53;20915459;28;20072;-64
2023/07/01 07:18:11;;;;;;;2.58;1.40;;;;;;;20.80;81.39;99925.66;20919358;28;20045;-65
2023/07/01 07:28:14;;;;;;;1.77;1.35;;;;;;;20.85;81.80;99925.13;20930319;28;20051;-64
2023/07/01 07:38:15;;;;;;;1.35;1.17;;;;;;;20.87;82.08;99917.66;20921184;28;20131;-65
2023/07/01 07:48:17;;;;;;;1.77;1.10;;;;;;;20.88;82.31;99927.47;20915297;28;20113;-65
2023/07/01 07:58:19;;;;;;;1.80;1.38;;;;;;;20.90;82.34;99916.44;20900332;28;20052;-64
2023/07/01 08:08:20;;;;;;;1.42;1.13;;;;;;;20.89;82.53;99921.03;20910833;28;20132;-65
2023/07/01 08:18:22;;;;;;;1.42;1.13;;;;;;;20.91;83.21;99912.72;20915572;28;20053;-64
2023/07/01 08:28:24;;;;;;;1.48;1.30;;;;;;;20.92;83.44;99915.25;20910207;28;20075;-64
2023/07/01 08:38:28;;;;;;;1.73;1.20;;;;;;;20.93;84.08;99908.81;20912283;28;20410;-64
2023/07/01 08:48:32;;;;;;;1.27;1.17;;;;;;;20.87;84.45;99893.31;20914764;28;20145;-64
2023/07/01 08:58:34;;;;;;;1.30;1.20;;;;;;;20.93;84.31;99906.13;20917769;28;20457;-65
2023/07/01 09:08:38;;;;;;;1.30;1.20;;;;;;;20.93;85.31;99908.81;20919597;28;20553;-64
2023/07/01 09:18:43;;;;;;;;;;;;;;;20.95;86.47;99909.47;20914046;28;20103;-64
2023/07/01 09:28:47;;;;;;;1.20;1.03;;;;;;;20.97;86.73;99899.31;20915338;28;19929;-64
2023/07/01 09:38:51;;;;;;;1.38;1.20;;;;;;;20.94;87.19;99886.16;20913250;28;20576;-64
2023/07/01 09:48:54;;;;;;;1.30;1.00;;;;;;;21.06;87.37;99902.81;20920258;28;20129;-64
2023/07/01 09:58:56;;;;;;;1.10;1.00;;;;;;;21.03;87.60;99883.38;20923019;28;20080;-61
2023/07/01 10:08:58;;;;;;;1.08;0.98;;;;;;;21.11;87.46;99886.00;20933429;28;20144;-62
2023/07/01 10:19:03;;;;;;;0.90;0.90;;;;;;;21.10;88.04;99885.19;20925016;28;20049;-64
2023/07/01 10:29:31;;;;;;;2.00;1.10;;;;;;;21.11;89.01;99864.34;20923289;28;20062;-63
2023/07/01 10:39:34;;;;;;;2.15;1.27;;;;;;;21.14;89.48;99864.00;20932802;28;20152;-63
2023/07/01 10:49:36;;;;;;;1.20;1.10;;;;;;;21.17;89.37;99873.63;20947588;28;21336;-63
2023/07/01 10:59:38;;;;;;;1.25;1.10;;;;;;;21.17;89.30;99870.91;20909424;28;20045;-63
2023/07/01 11:09:41;;;;;;;1.00;1.00;;;;;;;21.18;89.91;99859.88;20889466;28;20060;-63
2023/07/01 11:19:44;;;;;;;2.15;1.30;;;;;;;21.20;90.43;99855.13;20889812;28;20045;-63
2023/07/01 11:29:47;;;;;;;1.27;1.17;;;;;;;21.24;91.00;99853.75;20933184;28;20052;-63
2023/07/01 11:39:50;;;;;;;1.20;1.10;;;;;;;21.25;91.21;99843.75;20902241;28;20040;-63
2023/07/01 11:49:52;;;;;;;2.00;1.00;;;;;;;21.30;91.68;99847.59;20905657;28;20055;-63
2023/07/01 11:59:58;;;;;;;1.00;0.90;;;;;;;21.32;92.01;99849.28;20907240;28;20123;-63
2023/07/01 12:10:19;;;;;;;0.90;0.90;;;;;;;21.31;92.30;99870.09;20900796;28;20060;-64
2023/07/01 12:20:22;;;;;;;0.93;0.90;;;;;;;21.29;92.56;99862.16;20896533;28;20073;-65
2023/07/01 12:30:23;;;;;;;1.15;0.90;;;;;;;21.38;93.47;99851.25;20894623;28;20069;-64
2023/07/01 12:40:27;;;;;;;0.90;0.90;;;;;;;21.44;94.20;99855.94;20911972;28;20044;-64
2023/07/01 12:50:28;;;;;;;1.08;0.90;;;;;;;21.44;94.53;99862.19;20903114;28;20461;-64
2023/07/01 13:00:30;;;;;;;1.00;0.90;;;;;;;21.44;94.84;99870.31;20912197;28;20041;-63
2023/07/01 13:10:38;;;;;;;1.10;1.02;;;;;;;21.41;95.16;99867.94;20906392;28;20515;-65
2023/07/01 13:20:39;;;;;;;1.67;1.00;;;;;;;21.45;95.60;99887.38;20896307;28;20577;-65
2023/07/01 13:30:49;;;;;;;1.60;1.08;;;;;;;21.48;96.28;99881.59;20902317;28;20047;-62
2023/07/01 13:40:51;;;;;;;1.05;0.93;;;;;;;21.50;96.38;99884.13;20910046;28;20045;-65
2023/07/01 13:50:53;;;;;;;1.90;1.15;;;;;;;21.54;96.34;99886.28;20906456;28;20041;-66
2023/07/01 14:00:55;;;;;;;1.02;0.93;;;;;;;21.55;96.74;99904.19;20889874;28;20048;-65
2023/07/01 14:10:57;;;;;;;1.48;1.30;;;;;;;21.59;96.36;99916.34;20938025;28;20044;-65
2023/07/01 14:21:04;;;;;;;1.50;1.40;;;;;;;21.64;95.87;99912.28;20925645;28;20041;-65
2023/07/01 14:31:08;;;;;;;1.60;1.50;;;;;;;21.65;95.18;99922.06;20934100;28;20044;-65
2023/07/01 14:41:21;;;;;;;1.30;1.20;;;;;;;21.64;94.62;99956.47;20936592;28;20402;-65
2023/07/01 14:51:23;;;;;;;1.27;1.10;;;;;;;21.61;94.19;99961.34;20933887;28;20041;-65
2023/07/01 15:01:28;;;;;;;2.85;1.13;;;;;;;21.60;94.18;99965.94;20950448;28;20040;-66
2023/07/01 15:11:29;;;;;;;1.10;1.10;;;;;;;21.63;94.21;99965.59;20947955;28;20079;-65
2023/07/01 15:21:31;;;;;;;2.03;1.38;;;;;;;21.67;93.76;99976.94;20952393;28;20041;-65
2023/07/01 15:31:32;;;;;;;1.65;1.25;;;;;;;21.67;93.67;99977.75;20907664;28;20067;-66
2023/07/01 15:41:34;;;;;;;1.90;1.50;;;;;;;21.64;93.47;99971.84;20905035;28;20524;-67
2023/07/01 15:51:48;;;;;;;1.77;1.45;;;;;;;21.66;93.04;99986.91;20906134;28;20127;-66
2023/07/01 16:01:49;;;;;;;4.82;2.22;;;;;;;21.68;96.69;99984.84;20907305;28;20462;-66
2023/07/01 16:11:51;;;;;;;2.97;1.75;;;;;;;21.72;98.43;99993.47;20911220;28;20056;-65
2023/07/01 16:21:54;;;;;;;1.63;1.20;;;;;;;21.75;99.69;99990.41;20940116;28;20556;-69
2023/07/01 16:31:55;;;;;;;1.55;1.40;;;;;;;21.80;99.00;99998.81;20916865;28;20488;-68
2023/07/01 16:42:00;;;;;;;3.60;1.73;;;;;;;21.92;99.69;100011.91;20931334;28;20113;-66
2023/07/01 16:52:02;;;;;;;4.25;2.78;;;;;;;21.99;98.93;100015.53;20943908;28;20044;-66
2023/07/01 17:02:18;;;;;;;3.80;1.80;;;;;;;22.04;97.04;100020.41;20916988;28;20056;-66
2023/07/01 17:12:29;;;;;;;2.50;1.70;;;;;;;22.02;94.10;100035.00;20926753;28;20067;-66
2023/07/01 17:22:31;;;;;;;2.78;1.60;;;;;;;21.95;92.50;100034.06;20939775;28;20052;-65
2023/07/01 17:32:33;;;;;;;1.73;1.10;;;;;;;21.96;91.13;100062.84;20962333;28;20039;-66
2023/07/01 17:42:35;;;;;;;2.17;1.10;;;;;;;21.92;89.58;100060.66;20962248;28;20048;-66
2023/07/01 17:52:37;;;;;;;4.43;1.25;;;;;;;21.85;87.34;100077.66;20949507;28;20131;-66
2023/07/01 18:02:38;;;;;;;3.08;1.10;;;;;;;21.82;85.95;100080.75;20935879;28;20510;-64
2023/07/01 18:12:41;;;;;;;0.93;0.80;;;;;;;21.78;85.04;100079.44;20946890;28;20268;-65
2023/07/01 18:22:45;;;;;;;1.75;1.08;;;;;;;21.74;84.12;100080.81;20941292;28;20034;-65
2023/07/01 18:32:46;;;;;;;2.20;1.02;;;;;;;21.69;84.43;100073.22;20949756;28;20110;-65
2023/07/01 18:42:48;;;;;;;1.30;0.85;;;;;;;21.68;86.04;100076.13;20995578;28;20153;-66
2023/07/01 18:52:50;;;;;;;1.25;0.98;;;;;;;21.59;84.55;100088.84;20974121;28;20137;-66
2023/07/01 19:02:52;;;;;;;1.23;0.75;;;;;;;21.55;85.08;100109.19;20992738;28;20428;-66
2023/07/01 19:12:53;;;;;;;0.85;0.70;;;;;;;21.49;84.39;100110.75;20992339;28;20567;-65
2023/07/01 19:22:55;;;;;;;1.00;0.60;;;;;;;21.45;84.44;100109.44;20991082;28;20056;-65
2023/07/01 19:32:57;;;;;;;1.90;0.77;;;;;;;21.41;84.29;100111.63;20985579;28;20048;-65
2023/07/01 19:42:58;;;;;;;0.70;0.63;;;;;;;21.38;84.04;100127.41;20986528;28;20059;-65
2023/07/01 19:53:00;;;;;;;1.33;0.75;;;;;;;21.36;84.12;100134.88;21061718;28;20643;-65
2023/07/01 20:03:02;;;;;;;1.83;0.70;;;;;;;21.35;84.56;100157.56;21028197;28;20559;-65
2023/07/01 20:13:04;;;;;;;1.95;0.90;;;;;;;21.33;84.24;100162.31;20957558;28;20114;-65
2023/07/01 20:23:05;;;;;;;1.17;0.77;;;;;;;21.30;84.92;100172.47;20966084;28;20040;-66
2023/07/01 20:33:07;;;;;;;1.60;0.90;;;;;;;21.33;88.46;100181.25;20984355;28;20139;-66
2023/07/01 20:43:09;;;;;;;1.55;0.70;;;;;;;21.30;87.26;100177.88;20982919;28;20391;-66
2023/07/01 20:53:11;;;;;;;1.83;0.95;;;;;;;21.28;87.31;100179.91;21013926;28;20091;-66
2023/07/01 21:03:13;;;;;;;1.90;1.10;;;;;;;21.27;87.31;100189.06;20898464;28;20041;-66
2023/07/01 21:13:15;;;;;;;1.40;0.77;;;;;;;21.24;86.83;100194.84;20947185;28;20050;-66
2023/07/01 21:23:16;;;;;;;0.95;0.70;;;;;;;21.23;86.45;100193.16;21066294;28;20051;-66
2023/07/01 21:33:22;;;;;;;1.15;0.93;;;;;;;21.18;86.08;100186.56;20909294;28;20057;-65
2023/07/01 21:43:29;;;;;;;1.42;0.80;;;;;;;21.12;85.84;100186.25;20936286;28;20066;-66
2023/07/01 21:53:53;;;;;;;1.35;0.80;;;;;;;21.17;85.24;100187.56;21054884;28;20040;-66
2023/07/01 22:04:00;;;;;;;1.93;1.10;;;;;;;21.16;84.81;100197.53;21001692;28;20056;-66
2023/07/01 22:14:06;;;;;;;1.70;0.90;;;;;;;21.14;84.19;100194.16;21014558;28;20074;-66
2023/07/01 22:24:08;;;;;;;1.75;1.02;;;;;;;21.13;83.76;100200.59;20915374;28;20153;-66
2023/07/01 22:34:09;;;;;;;1.38;0.80;;;;;;;21.11;83.14;100205.34;20913182;28;20045;-65
2023/07/01 22:44:11;;;;;;;0.93;0.82;;;;;;;21.09;82.91;100210.09;21004506;28;20091;-66
2023/07/01 22:54:13;;;;;;;1.23;0.90;;;;;;;21.09;82.96;100223.63;20990747;28;20045;-66
2023/07/01 23:04:14;;;;;;;1.02;0.90;;;;;;;21.08;82.95;100203.00;21007306;28;20044;-66
2023/07/01 23:14:16;;;;;;;1.23;1.00;;;;;;;21.06;83.03;100194.22;20992901;28;20056;-66
2023/07/01 23:24:18;;;;;;;1.38;0.90;;;;;;;21.07;83.70;100204.88;20992649;28;20049;-66
2023/07/01 23:34:20;;;;;;;1.17;1.02;;;;;;;21.05;83.86;100206.06;20989128;28;20057;-66
2023/07/01 23:44:22;;;;;;;1.80;1.20;;;;;;;21.06;83.59;100214.00;21043023;28;20455;-66
2023/07/01 23:54:24;;;;;;;1.20;1.10;;;;;;;21.04;83.36;100201.66;21074078;28;20074;-66
